sensor_id;sensor_type;location;lat;lon;timestamp;pressure;altitude;pressure_sealevel;temperature;humidity
63954;BME280;50128;52.094;5.232;2023-02-12T00:02:09;102508.0;;;1.37;98.34
63954;BME280;50128;52.094;5.232;2023-02-12T00:03:46;102508.0;;;1.35;98.41
63954;BME280;50128;52.094;5.232;2023-02-12T00:05:23;102514.00000000001;;;1.47;97.74
63954;BME280;50128;52.094;5.232;2023-02-12T00:07:00;102513.00000000001;;;1.42;97.96
63954;BME280;50128;52.094;5.232;2023-02-12T00:10:14;102505.0;;;1.49;97.8
63954;BME280;50128;52.094;5.232;2023-02-12T00:11:51;102503.0;;;1.46;97.73
63954;BME280;50128;52.094;5.232;2023-02-12T00:13:29;102508.0;;;1.4;98.33
63954;BME280;50128;52.094;5.232;2023-02-12T00:16:43;102507.0;;;1.38;98.35
63954;BME280;50128;52.094;5.232;2023-02-12T00:18:20;102508.99999999999;;;1.36;98.25
63954;BME280;50128;52.094;5.232;2023-02-12T00:19:56;102513.00000000001;;;1.3;98.61
63954;BME280;50128;52.094;5.232;2023-02-12T00:21:35;102509.99999999999;;;1.34;98.73
63954;BME280;50128;52.094;5.232;2023-02-12T00:24:47;102508.0;;;1.33;98.33
63954;BME280;50128;52.094;5.232;2023-02-12T00:26:25;102508.0;;;1.27;98.97
63954;BME280;50128;52.094;5.232;2023-02-12T00:28:01;102506.0;;;1.27;98.89
63954;BME280;50128;52.094;5.232;2023-02-12T00:31:17;102505.0;;;1.28;98.77
63954;BME280;50128;52.094;5.232;2023-02-12T00:32:54;102505.0;;;1.36;98.49
63954;BME280;50128;52.094;5.232;2023-02-12T00:34:30;102505.0;;;1.37;98.24
63954;BME280;50128;52.094;5.232;2023-02-12T00:37:49;102499.0;;;1.34;98.63
63954;BME280;50128;52.094;5.232;2023-02-12T00:39:25;102508.0;;;1.32;98.8
63954;BME280;50128;52.094;5.232;2023-02-12T00:41:02;102500.0;;;1.3;98.78
63954;BME280;50128;52.094;5.232;2023-02-12T00:42:39;102500.0;;;1.31;98.74
63954;BME280;50128;52.094;5.232;2023-02-12T00:45:52;102495.0;;;1.3;98.71
63954;BME280;50128;52.094;5.232;2023-02-12T00:47:28;102495.0;;;1.3;98.79
63954;BME280;50128;52.094;5.232;2023-02-12T00:49:04;102497.0;;;1.37;98.54
63954;BME280;50128;52.094;5.232;2023-02-12T00:52:20;102501.0;;;1.3;98.66
63954;BME280;50128;52.094;5.232;2023-02-12T00:53:56;102502.0;;;1.29;98.86
63954;BME280;50128;52.094;5.232;2023-02-12T00:55:32;102498.0;;;1.3;98.79
63954;BME280;50128;52.094;5.232;2023-02-12T00:57:09;102502.0;;;1.29;98.98
63954;BME280;50128;52.094;5.232;2023-02-12T01:00:22;102497.0;;;1.26;99.22
63954;BME280;50128;52.094;5.232;2023-02-12T01:01:59;102502.0;;;1.27;99.2
63954;BME280;50128;52.094;5.232;2023-02-12T01:03:35;102506.0;;;1.27;99.2
63954;BME280;50128;52.094;5.232;2023-02-12T01:06:49;102506.0;;;1.25;99.0
63954;BME280;50128;52.094;5.232;2023-02-12T01:08:25;102507.0;;;1.23;98.85
63954;BME280;50128;52.094;5.232;2023-02-12T01:10:03;102508.99999999999;;;1.21;99.19
63954;BME280;50128;52.094;5.232;2023-02-12T01:13:17;102507.0;;;1.22;99.63
63954;BME280;50128;52.094;5.232;2023-02-12T01:14:53;102504.0;;;1.27;99.17
63954;BME280;50128;52.094;5.232;2023-02-12T01:16:30;102508.99999999999;;;1.27;99.16
63954;BME280;50128;52.094;5.232;2023-02-12T01:18:08;102504.0;;;1.25;99.16
63954;BME280;50128;52.094;5.232;2023-02-12T01:21:23;102503.0;;;1.24;99.16
63954;BME280;50128;52.094;5.232;2023-02-12T01:23:00;102501.0;;;1.21;99.47
63954;BME280;50128;52.094;5.232;2023-02-12T01:24:37;102503.0;;;1.22;99.59
63954;BME280;50128;52.094;5.232;2023-02-12T01:27:54;102505.0;;;1.27;99.08
63954;BME280;50128;52.094;5.232;2023-02-12T01:29:31;102504.0;;;1.32;98.53
63954;BME280;50128;52.094;5.232;2023-02-12T01:31:09;102499.0;;;1.28;98.65
63954;BME280;50128;52.094;5.232;2023-02-12T01:32:45;102498.0;;;1.23;98.94
63954;BME280;50128;52.094;5.232;2023-02-12T01:35:57;102499.0;;;1.29;98.72
63954;BME280;50128;52.094;5.232;2023-02-12T01:37:34;102500.0;;;1.2;99.32
63954;BME280;50128;52.094;5.232;2023-02-12T01:39:12;102503.0;;;1.19;99.45
63954;BME280;50128;52.094;5.232;2023-02-12T01:42:26;102505.0;;;1.19;99.13
63954;BME280;50128;52.094;5.232;2023-02-12T01:44:06;102506.0;;;1.17;99.03
63954;BME280;50128;52.094;5.232;2023-02-12T01:45:48;102501.0;;;1.1;99.25
63954;BME280;50128;52.094;5.232;2023-02-12T01:47:26;102502.0;;;1.21;99.21
63954;BME280;50128;52.094;5.232;2023-02-12T01:50:47;102507.0;;;1.21;99.23
63954;BME280;50128;52.094;5.232;2023-02-12T01:52:26;102506.0;;;1.17;99.25
63954;BME280;50128;52.094;5.232;2023-02-12T01:54:07;102502.0;;;1.16;99.16
63954;BME280;50128;52.094;5.232;2023-02-12T01:55:47;102501.0;;;1.08;99.75
63954;BME280;50128;52.094;5.232;2023-02-12T01:59:03;102503.0;;;1.1;99.54
63954;BME280;50128;52.094;5.232;2023-02-12T02:00:41;102504.0;;;1.07;99.67
63954;BME280;50128;52.094;5.232;2023-02-12T02:02:18;102505.0;;;1.05;99.62
63954;BME280;50128;52.094;5.232;2023-02-12T02:05:42;102500.0;;;1.04;99.81
63954;BME280;50128;52.094;5.232;2023-02-12T02:07:21;102501.0;;;1.06;99.94
63954;BME280;50128;52.094;5.232;2023-02-12T02:08:58;102502.0;;;1.05;100.0
63954;BME280;50128;52.094;5.232;2023-02-12T02:10:36;102498.0;;;1.04;99.92
63954;BME280;50128;52.094;5.232;2023-02-12T02:16:16;102493.0;;;0.99;100.0
63954;BME280;50128;52.094;5.232;2023-02-12T02:18:01;102492.0;;;1.0;100.0
63954;BME280;50128;52.094;5.232;2023-02-12T02:21:24;102495.0;;;1.02;100.0
63954;BME280;50128;52.094;5.232;2023-02-12T02:23:40;102498.0;;;0.97;100.0
63954;BME280;50128;52.094;5.232;2023-02-12T02:27:14;102493.0;;;0.98;100.0
63954;BME280;50128;52.094;5.232;2023-02-12T02:29:03;102494.0;;;1.0;100.0
63954;BME280;50128;52.094;5.232;2023-02-12T02:30:53;102495.0;;;1.02;100.0
63954;BME280;50128;52.094;5.232;2023-02-12T02:32:34;102495.0;;;0.98;100.0
63954;BME280;50128;52.094;5.232;2023-02-12T02:34:22;102492.0;;;0.98;100.0
63954;BME280;50128;52.094;5.232;2023-02-12T02:36:13;102494.0;;;0.99;100.0
63954;BME280;50128;52.094;5.232;2023-02-12T02:38:05;102494.0;;;0.99;100.0
63954;BME280;50128;52.094;5.232;2023-02-12T02:39:50;102492.0;;;0.95;100.0
63954;BME280;50128;52.094;5.232;2023-02-12T02:43:16;102490.00000000001;;;1.0;100.0
63954;BME280;50128;52.094;5.232;2023-02-12T02:44:58;102492.0;;;1.04;100.0
63954;BME280;50128;52.094;5.232;2023-02-12T02:46:41;102488.00000000001;;;1.05;99.98
63954;BME280;50128;52.094;5.232;2023-02-12T02:48:23;102484.99999999999;;;1.01;99.81
63954;BME280;50128;52.094;5.232;2023-02-12T02:50:09;102483.99999999999;;;1.0;99.88
63954;BME280;50128;52.094;5.232;2023-02-12T02:53:32;102483.99999999999;;;1.01;99.84
63954;BME280;50128;52.094;5.232;2023-02-12T02:55:16;102486.99999999999;;;0.96;100.0
63954;BME280;50128;52.094;5.232;2023-02-12T02:56:59;102488.00000000001;;;1.0;100.0
63954;BME280;50128;52.094;5.232;2023-02-12T02:58:43;102480.0;;;0.97;100.0
63954;BME280;50128;52.094;5.232;2023-02-12T03:02:12;102482.0;;;0.95;100.0
63954;BME280;50128;52.094;5.232;2023-02-12T03:03:56;102477.0;;;0.96;100.0
63954;BME280;50128;52.094;5.232;2023-02-12T03:05:38;102479.0;;;1.05;99.95
63954;BME280;50128;52.094;5.232;2023-02-12T03:07:21;102480.0;;;1.05;99.98
63954;BME280;50128;52.094;5.232;2023-02-12T03:09:05;102477.0;;;0.98;99.91
63954;BME280;50128;52.094;5.232;2023-02-12T03:12:31;102474.0;;;0.93;100.0
63954;BME280;50128;52.094;5.232;2023-02-12T03:14:15;102473.0;;;1.0;100.0
63954;BME280;50128;52.094;5.232;2023-02-12T03:15:58;102471.0;;;0.96;100.0
63954;BME280;50128;52.094;5.232;2023-02-12T03:17:40;102473.0;;;0.96;100.0
63954;BME280;50128;52.094;5.232;2023-02-12T03:19:22;102472.0;;;1.0;99.76
63954;BME280;50128;52.094;5.232;2023-02-12T03:22:44;102469.0;;;0.96;100.0
63954;BME280;50128;52.094;5.232;2023-02-12T03:24:30;102468.0;;;0.95;100.0
63954;BME280;50128;52.094;5.232;2023-02-12T03:26:12;102473.0;;;0.99;99.94
63954;BME280;50128;52.094;5.232;2023-02-12T03:27:59;102472.0;;;0.92;99.98
63954;BME280;50128;52.094;5.232;2023-02-12T03:31:22;102470.0;;;0.93;100.0
63954;BME280;50128;52.094;5.232;2023-02-12T03:33:14;102472.0;;;0.89;100.0
63954;BME280;50128;52.094;5.232;2023-02-12T03:35:05;102470.0;;;0.89;100.0
63954;BME280;50128;52.094;5.232;2023-02-12T03:36:50;102470.0;;;0.88;100.0
63954;BME280;50128;52.094;5.232;2023-02-12T03:38:34;102473.0;;;0.9;100.0
63954;BME280;50128;52.094;5.232;2023-02-12T03:42:00;102476.0;;;0.98;99.87
63954;BME280;50128;52.094;5.232;2023-02-12T03:43:46;102475.0;;;1.08;99.32
63954;BME280;50128;52.094;5.232;2023-02-12T03:45:37;102476.0;;;1.13;99.25
63954;BME280;50128;52.094;5.232;2023-02-12T03:47:21;102478.0;;;1.03;99.5
63954;BME280;50128;52.094;5.232;2023-02-12T03:49:03;102481.0;;;0.97;99.5
63954;BME280;50128;52.094;5.232;2023-02-12T03:50:46;102476.0;;;0.93;99.53
63954;BME280;50128;52.094;5.232;2023-02-12T03:54:11;102480.0;;;0.98;99.33
63954;BME280;50128;52.094;5.232;2023-02-12T03:55:53;102482.0;;;0.95;99.51
63954;BME280;50128;52.094;5.232;2023-02-12T03:57:37;102484.99999999999;;;0.9;99.51
63954;BME280;50128;52.094;5.232;2023-02-12T03:59:16;102490.00000000001;;;0.93;99.63
63954;BME280;50128;52.094;5.232;2023-02-12T04:02:30;102483.99999999999;;;0.93;99.44
63954;BME280;50128;52.094;5.232;2023-02-12T04:04:07;102491.00000000001;;;0.91;99.84
63954;BME280;50128;52.094;5.232;2023-02-12T04:05:46;102492.0;;;0.93;100.0
63954;BME280;50128;52.094;5.232;2023-02-12T04:09:02;102491.00000000001;;;0.94;99.68
63954;BME280;50128;52.094;5.232;2023-02-12T04:10:52;102492.0;;;1.06;99.24
63954;BME280;50128;52.094;5.232;2023-02-12T04:12:46;102495.0;;;1.04;99.41
63954;BME280;50128;52.094;5.232;2023-02-12T04:14:32;102492.0;;;1.04;99.16
63954;BME280;50128;52.094;5.232;2023-02-12T04:16:21;102501.0;;;1.08;99.49
63954;BME280;50128;52.094;5.232;2023-02-12T04:18:06;102501.0;;;1.01;98.76
63954;BME280;50128;52.094;5.232;2023-02-12T04:21:44;102499.0;;;1.04;98.64
63954;BME280;50128;52.094;5.232;2023-02-12T04:23:39;102500.0;;;1.0;98.47
63954;BME280;50128;52.094;5.232;2023-02-12T04:25:34;102503.0;;;1.0;98.47
63954;BME280;50128;52.094;5.232;2023-02-12T04:27:21;102504.0;;;0.92;98.7
63954;BME280;50128;52.094;5.232;2023-02-12T04:29:08;102504.0;;;0.93;98.83
63954;BME280;50128;52.094;5.232;2023-02-12T04:30:56;102508.0;;;0.86;99.07
63954;BME280;50128;52.094;5.232;2023-02-12T04:32:42;102507.0;;;0.86;99.33
63954;BME280;50128;52.094;5.232;2023-02-12T04:36:12;102509.99999999999;;;0.87;99.27
63954;BME280;50128;52.094;5.232;2023-02-12T04:37:56;102511.99999999999;;;0.86;99.19
63954;BME280;50128;52.094;5.232;2023-02-12T04:39:38;102517.0;;;0.83;99.45
63954;BME280;50128;52.094;5.232;2023-02-12T04:41:16;102522.0;;;0.81;99.41
63954;BME280;50128;52.094;5.232;2023-02-12T04:44:32;102523.0;;;0.84;99.39
63954;BME280;50128;52.094;5.232;2023-02-12T04:46:09;102516.00000000001;;;0.84;99.33
63954;BME280;50128;52.094;5.232;2023-02-12T04:47:47;102516.00000000001;;;0.82;99.43
63954;BME280;50128;52.094;5.232;2023-02-12T04:49:23;102517.0;;;0.88;99.01
63954;BME280;50128;52.094;5.232;2023-02-12T04:52:37;102523.0;;;0.99;98.67
63954;BME280;50128;52.094;5.232;2023-02-12T04:54:16;102521.0;;;0.94;98.48
63954;BME280;50128;52.094;5.232;2023-02-12T04:55:54;102522.0;;;0.91;98.63
63954;BME280;50128;52.094;5.232;2023-02-12T04:59:07;102518.0;;;0.9;98.63
63954;BME280;50128;52.094;5.232;2023-02-12T05:00:45;102516.00000000001;;;0.93;98.34
63954;BME280;50128;52.094;5.232;2023-02-12T05:02:21;102519.0;;;0.88;98.35
63954;BME280;50128;52.094;5.232;2023-02-12T05:03:58;102519.0;;;0.91;98.45
63954;BME280;50128;52.094;5.232;2023-02-12T05:07:11;102515.00000000001;;;0.91;97.49
63954;BME280;50128;52.094;5.232;2023-02-12T05:08:47;102519.0;;;0.9;97.69
63954;BME280;50128;52.094;5.232;2023-02-12T05:10:23;102518.0;;;0.87;97.48
63954;BME280;50128;52.094;5.232;2023-02-12T05:13:37;102517.0;;;0.87;97.74
63954;BME280;50128;52.094;5.232;2023-02-12T05:15:14;102520.0;;;0.84;97.65
63954;BME280;50128;52.094;5.232;2023-02-12T05:16:51;102520.0;;;0.85;97.28
63954;BME280;50128;52.094;5.232;2023-02-12T05:20:06;102519.0;;;1.01;96.43
63954;BME280;50128;52.094;5.232;2023-02-12T05:21:43;102522.0;;;0.95;96.39
63954;BME280;50128;52.094;5.232;2023-02-12T05:23:20;102522.0;;;1.02;95.86
63954;BME280;50128;52.094;5.232;2023-02-12T05:24:56;102520.0;;;0.95;95.44
63954;BME280;50128;52.094;5.232;2023-02-12T05:28:09;102525.0;;;1.08;95.41
63954;BME280;50128;52.094;5.232;2023-02-12T05:29:45;102526.0;;;1.01;95.41
63954;BME280;50128;52.094;5.232;2023-02-12T05:31:21;102523.0;;;0.99;95.53
63954;BME280;50128;52.094;5.232;2023-02-12T05:34:35;102524.0;;;0.97;95.82
63954;BME280;50128;52.094;5.232;2023-02-12T05:36:15;102522.0;;;0.91;95.91
63954;BME280;50128;52.094;5.232;2023-02-12T05:37:52;102525.0;;;0.89;96.11
63954;BME280;50128;52.094;5.232;2023-02-12T05:41:06;102524.0;;;0.9;96.17
63954;BME280;50128;52.094;5.232;2023-02-12T05:42:43;102529.0;;;0.9;96.17
63954;BME280;50128;52.094;5.232;2023-02-12T05:44:19;102529.0;;;0.87;96.42
63954;BME280;50128;52.094;5.232;2023-02-12T05:45:57;102529.0;;;0.92;95.86
63954;BME280;50128;52.094;5.232;2023-02-12T05:49:11;102523.0;;;0.9;95.82
63954;BME280;50128;52.094;5.232;2023-02-12T05:50:48;102523.0;;;0.94;95.85
63954;BME280;50128;52.094;5.232;2023-02-12T05:52:24;102527.0;;;0.92;95.93
63954;BME280;50128;52.094;5.232;2023-02-12T05:55:41;102529.0;;;0.9;96.01
63954;BME280;50128;52.094;5.232;2023-02-12T05:57:17;102530.0;;;0.86;96.26
63954;BME280;50128;52.094;5.232;2023-02-12T05:58:55;102532.0;;;0.88;95.54
63954;BME280;50128;52.094;5.232;2023-02-12T06:00:33;102533.99999999999;;;0.87;95.82
63954;BME280;50128;52.094;5.232;2023-02-12T06:03:46;102530.0;;;0.94;95.74
63954;BME280;50128;52.094;5.232;2023-02-12T06:05:23;102530.0;;;0.98;95.91
63954;BME280;50128;52.094;5.232;2023-02-12T06:06:59;102529.0;;;0.96;95.44
63954;BME280;50128;52.094;5.232;2023-02-12T06:10:13;102531.0;;;1.05;94.56
63954;BME280;50128;52.094;5.232;2023-02-12T06:11:49;102533.99999999999;;;0.97;95.17
63954;BME280;50128;52.094;5.232;2023-02-12T06:13:26;102533.99999999999;;;0.91;95.52
63954;BME280;50128;52.094;5.232;2023-02-12T06:15:04;102533.99999999999;;;0.91;96.11
63954;BME280;50128;52.094;5.232;2023-02-12T06:18:20;102536.99999999999;;;0.98;95.34
63954;BME280;50128;52.094;5.232;2023-02-12T06:19:57;102532.0;;;0.92;95.34
63954;BME280;50128;52.094;5.232;2023-02-12T06:21:33;102529.0;;;0.93;95.48
63954;BME280;50128;52.094;5.232;2023-02-12T06:24:46;102531.0;;;1.04;94.96
63954;BME280;50128;52.094;5.232;2023-02-12T06:26:23;102531.0;;;0.98;94.89
63954;BME280;50128;52.094;5.232;2023-02-12T06:28:01;102529.0;;;0.88;95.82
63954;BME280;50128;52.094;5.232;2023-02-12T06:31:18;102531.0;;;0.94;95.5
63954;BME280;50128;52.094;5.232;2023-02-12T06:32:55;102529.0;;;0.94;95.48
63954;BME280;50128;52.094;5.232;2023-02-12T06:34:33;102531.0;;;0.94;95.53
63954;BME280;50128;52.094;5.232;2023-02-12T06:36:09;102528.0;;;0.9;95.86
63954;BME280;50128;52.094;5.232;2023-02-12T06:39:22;102526.0;;;0.9;96.0
63954;BME280;50128;52.094;5.232;2023-02-12T06:41:00;102529.0;;;0.82;96.58
63954;BME280;50128;52.094;5.232;2023-02-12T06:42:37;102529.0;;;0.82;97.07
63954;BME280;50128;52.094;5.232;2023-02-12T06:45:49;102533.99999999999;;;0.83;97.22
63954;BME280;50128;52.094;5.232;2023-02-12T06:47:25;102534.99999999999;;;0.81;97.04
63954;BME280;50128;52.094;5.232;2023-02-12T06:49:02;102531.0;;;0.83;97.16
63954;BME280;50128;52.094;5.232;2023-02-12T06:50:39;102539.00000000001;;;0.78;97.13
63954;BME280;50128;52.094;5.232;2023-02-12T06:53:53;102538.00000000001;;;0.78;96.9
63954;BME280;50128;52.094;5.232;2023-02-12T06:55:30;102533.99999999999;;;0.79;96.92
63954;BME280;50128;52.094;5.232;2023-02-12T06:57:06;102536.99999999999;;;0.73;97.28
63954;BME280;50128;52.094;5.232;2023-02-12T07:00:22;102539.00000000001;;;0.75;97.83
63954;BME280;50128;52.094;5.232;2023-02-12T07:01:58;102539.00000000001;;;0.76;97.18
63954;BME280;50128;52.094;5.232;2023-02-12T07:03:35;102542.0;;;0.83;96.87
63954;BME280;50128;52.094;5.232;2023-02-12T07:06:48;102545.0;;;0.8;97.0
63954;BME280;50128;52.094;5.232;2023-02-12T07:08:24;102548.0;;;0.8;97.67
63954;BME280;50128;52.094;5.232;2023-02-12T07:10:00;102553.0;;;0.88;97.46
63954;BME280;50128;52.094;5.232;2023-02-12T07:11:37;102558.0;;;0.94;96.39
63954;BME280;50128;52.094;5.232;2023-02-12T07:14:50;102559.99999999999;;;0.98;95.83
63954;BME280;50128;52.094;5.232;2023-02-12T07:16:28;102563.00000000001;;;1.15;94.96
63954;BME280;50128;52.094;5.232;2023-02-12T07:18:05;102566.00000000001;;;1.14;94.49
63954;BME280;50128;52.094;5.232;2023-02-12T07:21:17;102565.00000000001;;;1.02;95.39
63954;BME280;50128;52.094;5.232;2023-02-12T07:22:55;102565.00000000001;;;1.03;95.8
63954;BME280;50128;52.094;5.232;2023-02-12T07:24:31;102568.0;;;1.25;93.97
63954;BME280;50128;52.094;5.232;2023-02-12T07:27:47;102572.0;;;1.37;92.81
63954;BME280;50128;52.094;5.232;2023-02-12T07:29:23;102573.0;;;1.16;94.0
63954;BME280;50128;52.094;5.232;2023-02-12T07:31:06;102574.0;;;1.13;93.57
63954;BME280;50128;52.094;5.232;2023-02-12T07:32:43;102574.0;;;1.22;93.12
63954;BME280;50128;52.094;5.232;2023-02-12T07:35:58;102571.0;;;1.15;93.64
63954;BME280;50128;52.094;5.232;2023-02-12T07:37:35;102572.0;;;1.03;94.72
63954;BME280;50128;52.094;5.232;2023-02-12T07:39:12;102573.0;;;1.08;94.72
63954;BME280;50128;52.094;5.232;2023-02-12T07:40:48;102577.0;;;0.95;95.17
63954;BME280;50128;52.094;5.232;2023-02-12T07:44:05;102576.0;;;0.9;95.54
63954;BME280;50128;52.094;5.232;2023-02-12T07:45:42;102576.0;;;0.9;94.75
63954;BME280;50128;52.094;5.232;2023-02-12T07:47:18;102579.0;;;1.01;95.01
63954;BME280;50128;52.094;5.232;2023-02-12T07:50:33;102582.0;;;0.95;95.96
63954;BME280;50128;52.094;5.232;2023-02-12T07:52:11;102589.00000000001;;;1.16;95.13
63954;BME280;50128;52.094;5.232;2023-02-12T07:53:48;102594.0;;;1.21;94.05
63954;BME280;50128;52.094;5.232;2023-02-12T07:57:02;102597.0;;;1.18;93.6
63954;BME280;50128;52.094;5.232;2023-02-12T07:58:40;102597.0;;;1.19;93.35
63954;BME280;50128;52.094;5.232;2023-02-12T08:00:18;102601.0;;;1.16;93.88
63954;BME280;50128;52.094;5.232;2023-02-12T08:01:55;102596.0;;;1.17;94.45
63954;BME280;50128;52.094;5.232;2023-02-12T08:05:08;102596.0;;;1.07;94.85
63954;BME280;50128;52.094;5.232;2023-02-12T08:06:47;102598.0;;;1.08;94.9
63954;BME280;50128;52.094;5.232;2023-02-12T08:08:24;102601.0;;;1.0;95.15
63954;BME280;50128;52.094;5.232;2023-02-12T08:11:38;102596.0;;;1.02;95.33
63954;BME280;50128;52.094;5.232;2023-02-12T08:13:16;102597.0;;;0.96;95.45
63954;BME280;50128;52.094;5.232;2023-02-12T08:14:53;102597.0;;;0.96;95.2
63954;BME280;50128;52.094;5.232;2023-02-12T08:16:29;102601.0;;;1.06;94.12
63954;BME280;50128;52.094;5.232;2023-02-12T08:19:47;102605.0;;;1.17;94.04
63954;BME280;50128;52.094;5.232;2023-02-12T08:21:25;102611.99999999999;;;1.18;94.17
63954;BME280;50128;52.094;5.232;2023-02-12T08:23:03;102613.00000000001;;;1.29;93.69
63954;BME280;50128;52.094;5.232;2023-02-12T08:26:17;102615.00000000001;;;1.4;92.98
63954;BME280;50128;52.094;5.232;2023-02-12T08:27:54;102614.00000000001;;;1.28;93.09
63954;BME280;50128;52.094;5.232;2023-02-12T08:29:30;102620.0;;;1.18;93.48
63954;BME280;50128;52.094;5.232;2023-02-12T08:31:09;102622.0;;;1.15;93.54
63954;BME280;50128;52.094;5.232;2023-02-12T08:34:28;102628.0;;;1.2;93.24
63954;BME280;50128;52.094;5.232;2023-02-12T08:36:08;102631.0;;;1.44;92.73
63954;BME280;50128;52.094;5.232;2023-02-12T08:37:45;102627.0;;;1.53;92.26
63954;BME280;50128;52.094;5.232;2023-02-12T08:41:00;102629.0;;;1.52;91.38
63954;BME280;50128;52.094;5.232;2023-02-12T08:42:37;102632.0;;;1.4;91.88
63954;BME280;50128;52.094;5.232;2023-02-12T08:44:14;102633.99999999999;;;1.4;91.84
63954;BME280;50128;52.094;5.232;2023-02-12T08:45:51;102633.0;;;1.32;92.21
63954;BME280;50128;52.094;5.232;2023-02-12T08:49:06;102633.99999999999;;;1.33;92.44
63954;BME280;50128;52.094;5.232;2023-02-12T08:50:44;102633.99999999999;;;1.3;92.64
63954;BME280;50128;52.094;5.232;2023-02-12T08:52:21;102633.0;;;1.32;92.38
63954;BME280;50128;52.094;5.232;2023-02-12T08:55:36;102636.99999999999;;;1.4;91.47
63954;BME280;50128;52.094;5.232;2023-02-12T08:57:13;102642.0;;;1.37;90.82
63954;BME280;50128;52.094;5.232;2023-02-12T08:58:49;102642.0;;;1.42;91.59
63954;BME280;50128;52.094;5.232;2023-02-12T09:00:26;102642.0;;;1.42;91.02
63954;BME280;50128;52.094;5.232;2023-02-12T09:03:41;102642.0;;;1.37;90.82
63954;BME280;50128;52.094;5.232;2023-02-12T09:05:17;102639.00000000001;;;1.29;92.45
63954;BME280;50128;52.094;5.232;2023-02-12T09:06:54;102638.00000000001;;;1.44;91.73
63954;BME280;50128;52.094;5.232;2023-02-12T09:10:09;102642.0;;;1.41;91.43
63954;BME280;50128;52.094;5.232;2023-02-12T09:11:46;102643.0;;;1.53;90.88
63954;BME280;50128;52.094;5.232;2023-02-12T09:13:23;102644.0;;;1.49;91.64
63954;BME280;50128;52.094;5.232;2023-02-12T09:15:00;102645.0;;;1.51;91.24
63954;BME280;50128;52.094;5.232;2023-02-12T09:18:16;102646.0;;;1.48;90.95
63954;BME280;50128;52.094;5.232;2023-02-12T09:19:53;102648.0;;;1.44;90.75
63954;BME280;50128;52.094;5.232;2023-02-12T09:21:30;102648.0;;;1.43;91.01
63954;BME280;50128;52.094;5.232;2023-02-12T09:24:46;102646.0;;;1.42;91.76
63954;BME280;50128;52.094;5.232;2023-02-12T09:26:24;102645.0;;;1.39;91.47
63954;BME280;50128;52.094;5.232;2023-02-12T09:28:01;102645.0;;;1.47;91.78
63954;BME280;50128;52.094;5.232;2023-02-12T09:29:38;102644.0;;;1.53;90.11
63954;BME280;50128;52.094;5.232;2023-02-12T09:32:55;102647.0;;;1.59;91.19
63954;BME280;50128;52.094;5.232;2023-02-12T09:34:33;102646.0;;;1.81;90.13
63954;BME280;50128;52.094;5.232;2023-02-12T09:36:15;102648.0;;;1.71;90.31
63954;BME280;50128;52.094;5.232;2023-02-12T09:39:29;102647.0;;;1.61;90.21
63954;BME280;50128;52.094;5.232;2023-02-12T09:41:15;102643.0;;;1.8;89.72
63954;BME280;50128;52.094;5.232;2023-02-12T09:43:10;102645.0;;;1.77;89.4
63954;BME280;50128;52.094;5.232;2023-02-12T09:44:56;102646.0;;;1.85;89.02
63954;BME280;50128;52.094;5.232;2023-02-12T09:46:42;102645.0;;;1.77;88.98
63954;BME280;50128;52.094;5.232;2023-02-12T09:50:30;102643.0;;;1.83;87.97
63954;BME280;50128;52.094;5.232;2023-02-12T09:52:24;102647.0;;;2.04;87.04
63954;BME280;50128;52.094;5.232;2023-02-12T09:54:04;102652.0;;;2.14;86.75
63954;BME280;50128;52.094;5.232;2023-02-12T09:55:46;102648.0;;;2.02;87.45
63954;BME280;50128;52.094;5.232;2023-02-12T09:57:26;102648.0;;;1.93;88.53
63954;BME280;50128;52.094;5.232;2023-02-12T09:59:06;102649.0;;;1.89;88.12
63954;BME280;50128;52.094;5.232;2023-02-12T10:02:21;102647.0;;;1.82;89.56
63954;BME280;50128;52.094;5.232;2023-02-12T10:04:00;102651.0;;;1.88;89.12
63954;BME280;50128;52.094;5.232;2023-02-12T10:05:40;102653.0;;;1.98;88.12
63954;BME280;50128;52.094;5.232;2023-02-12T10:07:28;102653.0;;;2.1;87.3
63954;BME280;50128;52.094;5.232;2023-02-12T10:11:21;102652.0;;;2.23;86.21
63954;BME280;50128;52.094;5.232;2023-02-12T10:13:25;102647.0;;;2.05;86.25
63954;BME280;50128;52.094;5.232;2023-02-12T10:15:20;102642.0;;;1.94;88.44
63954;BME280;50128;52.094;5.232;2023-02-12T10:17:07;102647.0;;;2.19;87.22
63954;BME280;50128;52.094;5.232;2023-02-12T10:18:57;102647.0;;;2.04;88.21
63954;BME280;50128;52.094;5.232;2023-02-12T10:20:51;102650.0;;;2.08;88.12
63954;BME280;50128;52.094;5.232;2023-02-12T10:22:56;102649.0;;;2.02;88.14
63954;BME280;50128;52.094;5.232;2023-02-12T10:24:48;102648.0;;;2.16;87.37
63954;BME280;50128;52.094;5.232;2023-02-12T10:26:36;102642.0;;;2.11;87.35
63954;BME280;50128;52.094;5.232;2023-02-12T10:28:16;102645.0;;;2.15;87.3
63954;BME280;50128;52.094;5.232;2023-02-12T10:31:35;102648.0;;;2.23;86.31
63954;BME280;50128;52.094;5.232;2023-02-12T10:33:16;102655.0;;;2.25;86.25
63954;BME280;50128;52.094;5.232;2023-02-12T10:34:56;102651.0;;;2.25;86.41
63954;BME280;50128;52.094;5.232;2023-02-12T10:36:38;102650.0;;;2.25;85.75
63954;BME280;50128;52.094;5.232;2023-02-12T10:40:00;102651.0;;;2.31;85.16
63954;BME280;50128;52.094;5.232;2023-02-12T10:41:43;102649.0;;;2.34;85.09
63954;BME280;50128;52.094;5.232;2023-02-12T10:43:22;102649.0;;;2.29;86.21
63954;BME280;50128;52.094;5.232;2023-02-12T10:44:59;102648.0;;;2.41;84.24
63954;BME280;50128;52.094;5.232;2023-02-12T10:48:17;102655.0;;;2.17;86.47
63954;BME280;50128;52.094;5.232;2023-02-12T10:49:57;102647.0;;;2.27;86.67
63954;BME280;50128;52.094;5.232;2023-02-12T10:51:42;102645.0;;;2.31;86.34
63954;BME280;50128;52.094;5.232;2023-02-12T10:53:29;102651.0;;;2.33;86.12
63954;BME280;50128;52.094;5.232;2023-02-12T10:57:07;102649.0;;;2.31;85.18
63954;BME280;50128;52.094;5.232;2023-02-12T10:58:53;102645.0;;;2.31;85.28
63954;BME280;50128;52.094;5.232;2023-02-12T11:00:32;102647.0;;;2.48;84.29
63954;BME280;50128;52.094;5.232;2023-02-12T11:02:31;102641.00000000001;;;2.5;84.53
63954;BME280;50128;52.094;5.232;2023-02-12T11:04:20;102644.0;;;2.4;84.83